createdAt,value
2022-08-17T00:00:35.022Z,93.20
2022-08-17T00:03:08.188Z,93.20
2022-08-17T00:05:39.072Z,93.20
2022-08-17T00:08:07.045Z,93.40
2022-08-17T00:10:37.347Z,93.20
2022-08-17T00:13:10.819Z,93.00
2022-08-17T00:15:38.952Z,93.00
2022-08-17T00:19:05.673Z,92.90
2022-08-17T00:20:56.488Z,92.90
2022-08-17T00:23:28.494Z,92.80
2022-08-17T00:25:58.017Z,92.80
2022-08-17T00:28:26.189Z,92.80
2022-08-17T00:30:59.342Z,92.80
2022-08-17T00:33:29.629Z,92.80
2022-08-17T00:35:58.957Z,92.80
2022-08-17T00:38:28.938Z,92.80
2022-08-17T00:41:02.088Z,92.80
2022-08-17T00:43:37.278Z,92.70
2022-08-17T00:46:08.367Z,92.80
2022-08-17T00:48:36.782Z,92.80
2022-08-17T00:51:16.942Z,92.80
2022-08-17T00:53:51.245Z,92.70
2022-08-17T00:56:25.065Z,92.80
2022-08-17T00:58:55.537Z,92.80
2022-08-17T01:01:24.049Z,92.80
2022-08-17T01:03:59.255Z,92.70
2022-08-17T01:06:29.247Z,92.80
2022-08-17T01:08:59.317Z,92.70
2022-08-17T01:11:30.417Z,92.70
2022-08-17T01:13:58.425Z,92.70
2022-08-17T01:16:28.263Z,92.70
2022-08-17T01:18:59.231Z,92.70
2022-08-17T01:21:34.213Z,92.70
2022-08-17T01:24:04.143Z,92.70
2022-08-17T01:26:34.075Z,92.70
2022-08-17T01:29:03.979Z,92.70
2022-08-17T01:31:37.603Z,92.70
2022-08-17T01:34:09.681Z,92.70
2022-08-17T01:36:38.754Z,92.70
2022-08-17T01:39:15.460Z,92.70
2022-08-17T01:41:45.668Z,92.70
2022-08-17T01:44:16.786Z,92.80
2022-08-17T01:46:44.844Z,92.80
2022-08-17T01:49:13.612Z,92.70
2022-08-17T01:51:41.614Z,92.80
2022-08-17T01:54:17.480Z,92.80
2022-08-17T01:56:50.315Z,92.90
2022-08-17T01:59:19.989Z,92.80
2022-08-17T02:01:48.597Z,92.90
2022-08-17T02:04:16.971Z,92.90
2022-08-17T02:06:53.273Z,93.00
2022-08-17T02:09:25.397Z,93.10
2022-08-17T02:11:54.466Z,93.10
2022-08-17T02:14:23.383Z,93.10
2022-08-17T02:16:51.778Z,93.20
2022-08-17T02:19:20.582Z,93.10
2022-08-17T02:21:51.830Z,93.10
2022-08-17T02:25:00.213Z,93.10
2022-08-17T02:27:13.585Z,93.10
2022-08-17T02:29:41.530Z,93.10
2022-08-17T02:32:27.300Z,93.10
2022-08-17T02:34:56.503Z,93.10
2022-08-17T02:37:24.641Z,93.00
2022-08-17T02:39:54.167Z,93.10
2022-08-17T02:42:27.701Z,93.10
2022-08-17T02:44:55.660Z,93.00
2022-08-17T02:47:23.637Z,92.90
2022-08-17T02:49:55.569Z,92.90
2022-08-17T02:52:42.848Z,92.90
2022-08-17T02:55:15.289Z,92.90
2022-08-17T02:57:43.469Z,92.90
2022-08-17T03:00:15.023Z,92.90
2022-08-17T03:02:44.572Z,92.90
2022-08-17T03:05:15.828Z,92.90
2022-08-17T03:07:43.811Z,92.90
2022-08-17T03:10:14.215Z,92.90
2022-08-17T03:12:43.477Z,93.00
2022-08-17T03:15:14.208Z,93.00
2022-08-17T03:17:42.278Z,93.00
2022-08-17T03:20:11.350Z,93.10
2022-08-17T03:22:41.511Z,93.20
2022-08-17T03:25:19.870Z,93.20
2022-08-17T03:27:51.485Z,93.20
2022-08-17T03:30:21.191Z,93.20
2022-08-17T03:32:51.367Z,93.20
2022-08-17T03:35:21.890Z,93.30
2022-08-17T03:37:52.443Z,93.20
2022-08-17T03:40:55.354Z,93.30
2022-08-17T03:43:20.181Z,93.40
2022-08-17T03:46:05.929Z,93.40
2022-08-17T03:48:56.372Z,93.50
2022-08-17T03:51:43.335Z,93.50
2022-08-17T03:54:29.881Z,93.50
2022-08-17T03:57:05.019Z,93.50
2022-08-17T03:59:33.702Z,93.70
2022-08-17T04:02:07.343Z,93.70
2022-08-17T04:04:35.367Z,93.70
2022-08-17T04:07:03.389Z,93.70
2022-08-17T04:09:31.396Z,93.70
2022-08-17T04:12:02.386Z,93.80
2022-08-17T04:14:36.690Z,93.90
2022-08-17T04:17:23.166Z,94.00
2022-08-17T04:19:51.131Z,94.00
2022-08-17T04:22:33.378Z,94.10
2022-08-17T04:25:05.112Z,94.20
2022-08-17T04:27:34.457Z,94.10
2022-08-17T04:30:02.394Z,94.20
2022-08-17T04:33:03.989Z,94.30
2022-08-17T04:35:22.661Z,94.30
2022-08-17T04:37:51.146Z,94.30
2022-08-17T04:40:38.250Z,94.40
2022-08-17T04:43:09.795Z,94.50
2022-08-17T04:45:40.936Z,94.50
2022-08-17T04:48:23.892Z,94.50
2022-08-17T04:51:07.651Z,94.50
2022-08-17T04:53:36.107Z,94.60
2022-08-17T04:56:04.643Z,94.60
2022-08-17T04:58:34.135Z,94.70
2022-08-17T05:01:05.829Z,94.60
2022-08-17T05:03:36.707Z,94.60
2022-08-17T05:06:08.063Z,94.50
2022-08-17T05:08:36.044Z,94.50
2022-08-17T05:11:04.283Z,94.60
2022-08-17T05:13:33.660Z,94.70
2022-08-17T05:16:04.452Z,94.80
2022-08-17T05:18:40.377Z,94.80
2022-08-17T05:21:08.803Z,94.80
2022-08-17T05:23:42.070Z,94.80
2022-08-17T05:26:25.432Z,94.90
2022-08-17T05:28:57.194Z,94.70
2022-08-17T05:31:30.241Z,94.70
2022-08-17T05:33:58.747Z,94.70
2022-08-17T05:36:38.026Z,94.70
2022-08-17T05:39:17.106Z,94.70
2022-08-17T05:41:47.662Z,94.80
2022-08-17T05:44:17.714Z,94.90
2022-08-17T05:46:53.062Z,95.00
2022-08-17T05:49:28.079Z,95.00
2022-08-17T05:52:14.749Z,95.00
2022-08-17T05:55:02.400Z,95.00
2022-08-17T05:57:47.427Z,95.10
2022-08-17T06:00:30.540Z,95.20
2022-08-17T06:03:27.882Z,95.20
2022-08-17T06:06:05.955Z,95.30
2022-08-17T06:08:38.219Z,95.30
2022-08-17T06:11:16.319Z,95.30
2022-08-17T06:14:05.330Z,95.20
2022-08-17T06:16:38.690Z,95.20
2022-08-17T06:19:13.214Z,95.20
2022-08-17T06:21:45.136Z,95.50
2022-08-17T06:24:27.365Z,95.40
2022-08-17T06:26:58.081Z,96.30
2022-08-17T06:29:38.473Z,96.80
2022-08-17T06:32:12.639Z,96.90
2022-08-17T06:34:43.065Z,97.50
2022-08-17T06:37:26.003Z,97.60
2022-08-17T06:40:02.549Z,97.90
2022-08-17T06:42:55.042Z,98.10
2022-08-17T06:45:32.098Z,98.00
2022-08-17T06:48:08.257Z,98.20
2022-08-17T06:50:40.630Z,98.40
2022-08-17T06:53:22.121Z,97.80
2022-08-17T06:55:57.053Z,97.70
2022-08-17T06:58:31.245Z,97.90
2022-08-17T07:01:07.098Z,97.80
2022-08-17T07:03:42.587Z,97.70
2022-08-17T07:06:16.210Z,97.50
2022-08-17T07:08:51.978Z,97.20
2022-08-17T07:11:28.901Z,97.30
2022-08-17T07:14:05.535Z,97.30
2022-08-17T07:16:39.396Z,97.50
2022-08-17T07:19:10.874Z,97.90
2022-08-17T07:21:49.771Z,98.00
2022-08-17T07:24:37.188Z,98.10
2022-08-17T07:27:12.122Z,98.50
2022-08-17T07:29:43.891Z,98.40
2022-08-17T07:32:18.328Z,98.80
2022-08-17T07:35:16.519Z,98.60
2022-08-17T07:37:53.026Z,98.40
2022-08-17T07:40:28.049Z,98.20
2022-08-17T07:43:24.210Z,98.10
2022-08-17T07:46:16.834Z,98.00
2022-08-17T07:48:49.574Z,97.70
2022-08-17T07:51:26.275Z,97.90
2022-08-17T07:54:12.881Z,97.90
2022-08-17T07:56:45.136Z,97.70
2022-08-17T07:59:17.992Z,97.70
2022-08-17T08:02:05.234Z,98.00
2022-08-17T08:04:59.026Z,98.10
2022-08-17T08:07:31.829Z,97.90
2022-08-17T08:10:09.448Z,97.90
2022-08-17T08:12:41.146Z,98.00
2022-08-17T08:15:18.868Z,97.90
2022-08-17T08:17:51.798Z,97.90
2022-08-17T08:20:50.885Z,97.90
2022-08-17T08:23:26.455Z,98.10
2022-08-17T08:26:07.116Z,98.20
2022-08-17T08:28:46.551Z,98.10
2022-08-17T08:31:42.220Z,98.20
2022-08-17T08:34:44.501Z,98.00
2022-08-17T08:37:22.609Z,98.00
2022-08-17T08:40:03.385Z,98.30
2022-08-17T08:42:39.236Z,98.40
2022-08-17T08:45:16.396Z,98.40
2022-08-17T08:48:05.503Z,98.60
2022-08-17T08:50:46.482Z,98.70
2022-08-17T08:53:28.696Z,98.70
2022-08-17T08:56:05.956Z,98.80
2022-08-17T08:58:44.129Z,99.30
2022-08-17T09:01:21.931Z,99.20
2022-08-17T09:04:18.306Z,99.10
2022-08-17T09:06:57.870Z,99.20
2022-08-17T09:09:36.524Z,99.40
2022-08-17T09:12:13.903Z,99.50
2022-08-17T09:14:50.016Z,99.40
2022-08-17T09:17:21.860Z,99.40
2022-08-17T09:19:55.300Z,99.50
2022-08-17T09:22:31.286Z,99.30
2022-08-17T09:25:07.312Z,99.70
2022-08-17T09:27:53.173Z,99.90
2022-08-17T09:30:23.711Z,99.90
2022-08-17T09:32:57.420Z,99.90
2022-08-17T09:35:36.603Z,99.90
2022-08-17T09:38:14.659Z,99.90
2022-08-17T09:40:49.646Z,99.90
2022-08-17T09:43:28.504Z,99.90
2022-08-17T09:46:01.296Z,99.90
2022-08-17T09:48:36.687Z,99.90
2022-08-17T09:51:09.598Z,99.90
2022-08-17T09:53:39.141Z,99.90
2022-08-17T09:56:18.398Z,99.90
2022-08-17T09:59:03.876Z,99.90
2022-08-17T10:01:38.506Z,99.90
2022-08-17T10:04:29.330Z,99.90
2022-08-17T10:07:07.248Z,99.90
2022-08-17T10:09:45.117Z,99.90
2022-08-17T10:12:28.289Z,99.90
2022-08-17T10:15:09.719Z,99.90
2022-08-17T10:17:44.792Z,99.90
2022-08-17T10:20:18.228Z,99.90
2022-08-17T10:23:07.511Z,99.90
2022-08-17T10:25:56.571Z,99.90
2022-08-17T10:28:30.026Z,99.90
2022-08-17T10:31:33.011Z,99.90
2022-08-17T10:34:07.817Z,99.90
2022-08-17T10:36:46.202Z,99.90
2022-08-17T10:39:23.569Z,99.90
2022-08-17T10:41:56.178Z,99.90
2022-08-17T10:44:39.247Z,99.90
2022-08-17T10:47:14.940Z,99.90
2022-08-17T10:49:47.547Z,99.90
2022-08-17T10:52:48.357Z,99.90
2022-08-17T10:55:17.855Z,99.90
2022-08-17T10:57:47.597Z,99.90
2022-08-17T11:00:36.072Z,99.90
2022-08-17T11:03:17.444Z,99.90
2022-08-17T11:05:54.216Z,99.90
2022-08-17T11:08:48.476Z,99.90
2022-08-17T11:11:37.581Z,99.90
2022-08-17T11:14:29.568Z,99.90
2022-08-17T11:17:20.156Z,99.90
2022-08-17T11:20:21.045Z,99.90
2022-08-17T11:23:10.765Z,99.90
2022-08-17T11:25:41.217Z,99.80
2022-08-17T11:28:17.441Z,99.30
2022-08-17T11:30:51.895Z,98.50
2022-08-17T11:33:56.121Z,97.90
2022-08-17T11:36:51.779Z,97.70
2022-08-17T11:39:46.794Z,97.30
2022-08-17T11:42:29.915Z,97.20
2022-08-17T11:45:00.282Z,96.90
2022-08-17T11:48:23.755Z,96.70
2022-08-17T11:51:10.483Z,96.70
2022-08-17T11:54:31.283Z,96.60
2022-08-17T11:56:52.775Z,96.60
2022-08-17T11:59:59.343Z,97.00
2022-08-17T12:02:48.107Z,98.30
2022-08-17T12:05:35.032Z,98.20
2022-08-17T12:08:22.732Z,98.50
2022-08-17T12:11:01.156Z,98.20
2022-08-17T12:13:35.190Z,98.20
2022-08-17T12:16:07.234Z,97.80
2022-08-17T12:18:39.603Z,97.60
2022-08-17T12:21:28.881Z,98.20
2022-08-17T12:24:06.664Z,97.80
2022-08-17T12:26:37.726Z,97.20
2022-08-17T12:29:18.408Z,96.60
2022-08-17T12:32:02.075Z,96.80
2022-08-17T12:34:36.620Z,96.50
2022-08-17T12:37:09.106Z,95.90
2022-08-17T12:39:39.718Z,96.00
2022-08-17T12:42:23.714Z,96.70
2022-08-17T12:44:51.676Z,95.70
2022-08-17T12:47:22.630Z,95.60
2022-08-17T12:49:52.770Z,95.50
2022-08-17T12:52:24.963Z,95.50
2022-08-17T12:54:59.437Z,94.50
2022-08-17T12:57:33.072Z,94.20
2022-08-17T13:00:03.422Z,94.20
2022-08-17T13:02:42.342Z,94.10
2022-08-17T13:05:18.970Z,94.50
2022-08-17T13:07:47.708Z,94.50
2022-08-17T13:10:21.380Z,94.60
2022-08-17T13:12:52.393Z,94.80
2022-08-17T13:15:29.428Z,94.50
2022-08-17T13:18:05.424Z,94.60
2022-08-17T13:20:36.215Z,94.60
2022-08-17T13:23:12.442Z,94.50
2022-08-17T13:25:40.793Z,94.10
2022-08-17T13:28:35.486Z,94.10
2022-08-17T13:31:24.620Z,93.90
2022-08-17T13:33:52.776Z,93.90
2022-08-17T13:36:33.549Z,93.70
2022-08-17T13:39:09.657Z,93.70
2022-08-17T13:41:39.250Z,93.50
2022-08-17T13:44:32.095Z,93.70
2022-08-17T13:47:01.218Z,93.60
2022-08-17T13:49:42.072Z,93.70
2022-08-17T13:52:43.485Z,94.00
2022-08-17T13:55:19.938Z,94.50
2022-08-17T13:57:49.094Z,94.70
2022-08-17T14:00:32.636Z,94.90
2022-08-17T14:03:02.669Z,94.90
2022-08-17T14:05:32.559Z,95.20
2022-08-17T14:08:07.002Z,95.10
2022-08-17T14:10:36.467Z,95.00
2022-08-17T14:13:04.922Z,95.00
2022-08-17T14:15:54.601Z,94.90
2022-08-17T14:18:50.656Z,94.80
2022-08-17T14:21:11.508Z,94.70
2022-08-17T14:23:43.888Z,94.90
2022-08-17T14:26:23.303Z,94.90
2022-08-17T14:28:56.225Z,94.80
2022-08-17T14:31:28.610Z,94.70
2022-08-17T14:33:58.822Z,94.60
2022-08-17T14:36:31.207Z,94.40
2022-08-17T14:38:59.211Z,94.30
2022-08-17T14:41:33.216Z,94.30
2022-08-17T14:44:01.410Z,94.30
2022-08-17T14:46:30.772Z,94.40
2022-08-17T14:48:59.803Z,94.50
2022-08-17T14:51:30.299Z,94.60
2022-08-17T14:53:58.270Z,94.80
2022-08-17T14:56:27.135Z,95.00
2022-08-17T14:58:59.762Z,95.10
2022-08-17T15:01:28.533Z,95.40
2022-08-17T15:03:59.353Z,95.60
2022-08-17T15:06:27.319Z,95.90
2022-08-17T15:08:55.688Z,95.90
2022-08-17T15:11:23.599Z,96.10
2022-08-17T15:13:52.705Z,96.30
2022-08-17T15:16:23.275Z,96.40
2022-08-17T15:18:52.609Z,96.50
2022-08-17T15:21:23.211Z,96.50
2022-08-17T15:23:51.232Z,96.40
2022-08-17T15:26:26.180Z,96.60
2022-08-17T15:28:57.255Z,96.80
2022-08-17T15:31:32.154Z,97.00
2022-08-17T15:34:08.716Z,97.10
2022-08-17T15:36:38.907Z,96.90
2022-08-17T15:39:15.805Z,97.20
2022-08-17T15:41:58.626Z,97.20
2022-08-17T15:44:32.499Z,97.20
2022-08-17T15:47:09.822Z,97.60
2022-08-17T15:49:40.787Z,98.00
2022-08-17T15:52:17.394Z,97.90
2022-08-17T15:54:55.153Z,97.90
2022-08-17T15:57:24.595Z,97.90
2022-08-17T15:59:58.444Z,97.90
2022-08-17T16:03:44.866Z,98.20
2022-08-17T16:05:24.775Z,97.90
2022-08-17T16:07:54.856Z,98.00
2022-08-17T16:10:34.801Z,98.60
2022-08-17T16:13:04.986Z,98.70
2022-08-17T16:15:33.586Z,99.00
2022-08-17T16:18:01.644Z,99.10
2022-08-17T16:20:30.600Z,98.90
2022-08-17T16:22:59.925Z,99.20
2022-08-17T16:25:52.504Z,99.50
2022-08-17T16:28:21.774Z,99.40
2022-08-17T16:30:49.809Z,98.70
2022-08-17T16:33:18.543Z,98.90
2022-08-17T16:35:46.604Z,99.30
2022-08-17T16:38:15.956Z,99.90
2022-08-17T16:40:43.927Z,99.90
2022-08-17T16:43:11.936Z,99.90
2022-08-17T16:45:40.707Z,99.90
2022-08-17T16:48:10.063Z,99.90
2022-08-17T16:50:38.898Z,99.90
2022-08-17T16:53:08.901Z,99.90
2022-08-17T16:55:39.225Z,99.90
2022-08-17T16:58:08.794Z,99.90
2022-08-17T17:00:37.287Z,99.90
2022-08-17T17:03:19.517Z,99.90
2022-08-17T17:05:58.404Z,99.90
2022-08-17T17:08:31.332Z,99.90
2022-08-17T17:11:09.168Z,99.90
2022-08-17T17:13:42.423Z,99.90
2022-08-17T17:16:19.215Z,99.90
2022-08-17T17:19:03.222Z,99.90
2022-08-17T17:21:47.934Z,99.90
2022-08-17T17:24:22.464Z,99.90
2022-08-17T17:27:19.582Z,99.90
2022-08-17T17:30:00.447Z,99.90
2022-08-17T17:32:35.861Z,99.90
2022-08-17T17:35:09.988Z,99.90
2022-08-17T17:37:41.758Z,99.90
2022-08-17T17:40:17.561Z,99.90
2022-08-17T17:42:46.924Z,99.90
2022-08-17T17:45:21.660Z,99.90
2022-08-17T17:47:50.466Z,99.90
2022-08-17T17:50:20.892Z,99.90
2022-08-17T17:52:57.821Z,99.90
2022-08-17T17:55:46.373Z,99.90
2022-08-17T17:58:28.263Z,99.90
2022-08-17T18:01:17.525Z,99.90
2022-08-17T18:04:17.017Z,99.90
2022-08-17T18:07:21.047Z,99.90
2022-08-17T18:10:13.717Z,99.90
2022-08-17T18:13:08.338Z,99.90
2022-08-17T18:15:49.356Z,99.90
2022-08-17T18:18:37.424Z,99.90
2022-08-17T18:21:16.794Z,99.90
2022-08-17T18:23:51.999Z,99.90
2022-08-17T18:26:46.497Z,99.90
2022-08-17T18:29:23.382Z,99.90
2022-08-17T18:32:18.970Z,99.90
2022-08-17T18:34:49.273Z,99.90
2022-08-17T18:37:33.986Z,99.90
2022-08-17T18:40:32.746Z,99.90
2022-08-17T18:43:09.792Z,99.90
2022-08-17T18:45:42.723Z,99.90
2022-08-17T18:48:32.898Z,99.90
2022-08-17T18:51:07.340Z,99.90
2022-08-17T18:53:39.099Z,99.90
2022-08-17T18:56:30.584Z,99.90
2022-08-17T18:59:19.934Z,99.90
2022-08-17T19:02:07.593Z,99.90
2022-08-17T19:04:44.069Z,99.90
2022-08-17T19:07:25.758Z,99.90
2022-08-17T19:09:57.942Z,99.90
2022-08-17T19:12:31.087Z,99.90
2022-08-17T19:15:00.979Z,99.90
2022-08-17T19:17:38.768Z,99.90
2022-08-17T19:20:15.608Z,99.90
2022-08-17T19:22:52.975Z,99.90
2022-08-17T19:25:25.587Z,99.90
2022-08-17T19:27:58.551Z,99.90
2022-08-17T19:30:27.701Z,99.90
2022-08-17T19:32:57.656Z,99.90
2022-08-17T19:35:41.982Z,99.90
2022-08-17T19:38:18.535Z,99.90
2022-08-17T19:40:59.547Z,99.90
2022-08-17T19:43:47.878Z,99.90
2022-08-17T19:46:25.954Z,99.90
2022-08-17T19:49:03.767Z,99.90
2022-08-17T19:51:43.313Z,99.90
2022-08-17T19:54:21.259Z,99.90
2022-08-17T19:56:58.375Z,99.90
2022-08-17T19:59:49.346Z,99.90
2022-08-17T20:02:29.135Z,99.90
2022-08-17T20:05:02.701Z,99.90
2022-08-17T20:07:43.249Z,99.90
2022-08-17T20:10:18.668Z,99.90
2022-08-17T20:12:48.584Z,99.90
2022-08-17T20:15:25.281Z,99.90
2022-08-17T20:17:53.550Z,99.90
2022-08-17T20:20:29.828Z,99.90
2022-08-17T20:23:05.552Z,99.90
2022-08-17T20:25:38.365Z,99.90
2022-08-17T20:28:19.445Z,99.90
2022-08-17T20:30:47.459Z,99.90
2022-08-17T20:33:26.807Z,99.90
2022-08-17T20:36:05.802Z,99.90
2022-08-17T20:38:45.469Z,99.90
2022-08-17T20:41:16.945Z,99.90
2022-08-17T20:43:52.343Z,99.90
2022-08-17T20:46:31.419Z,99.90
2022-08-17T20:49:16.356Z,99.90
2022-08-17T20:52:01.282Z,99.90
2022-08-17T20:54:48.184Z,99.90
2022-08-17T20:57:48.908Z,99.90
2022-08-17T21:00:46.253Z,99.90
2022-08-17T21:03:57.308Z,99.90
2022-08-17T21:06:26.542Z,99.90
2022-08-17T21:08:58.756Z,99.90
2022-08-17T21:12:04.252Z,99.90
2022-08-17T21:14:56.078Z,99.90
2022-08-17T21:17:43.464Z,99.90
2022-08-17T21:20:25.556Z,99.90
2022-08-17T21:23:06.690Z,99.90
2022-08-17T21:25:53.981Z,99.90
2022-08-17T21:28:33.870Z,99.90
2022-08-17T21:31:08.422Z,99.90
2022-08-17T21:33:39.902Z,99.90
2022-08-17T21:36:25.010Z,99.90
2022-08-17T21:39:03.894Z,99.90
2022-08-17T21:41:44.699Z,99.90
2022-08-17T21:44:22.283Z,99.90
2022-08-17T21:46:52.583Z,99.90
2022-08-17T21:49:26.343Z,99.90
2022-08-17T21:51:56.295Z,99.90
2022-08-17T21:54:33.881Z,99.90
2022-08-17T21:57:04.976Z,99.90
2022-08-17T21:59:38.409Z,99.90
2022-08-17T22:02:09.253Z,99.90
2022-08-17T22:04:39.530Z,99.90
2022-08-17T22:07:10.320Z,99.90
2022-08-17T22:09:43.960Z,99.90
2022-08-17T22:12:16.219Z,99.90
2022-08-17T22:14:52.154Z,99.90
2022-08-17T22:17:25.087Z,99.90
2022-08-17T22:19:55.323Z,99.90
2022-08-17T22:22:32.388Z,99.90
2022-08-17T22:25:01.616Z,99.90
2022-08-17T22:27:56.361Z,99.90
2022-08-17T22:30:37.255Z,99.90
2022-08-17T22:33:31.892Z,99.90
2022-08-17T22:36:11.866Z,99.90
2022-08-17T22:38:40.677Z,99.90
2022-08-17T22:41:25.782Z,99.90
2022-08-17T22:43:57.332Z,99.90
2022-08-17T22:46:26.872Z,99.90
2022-08-17T22:48:57.801Z,99.90
2022-08-17T22:51:29.827Z,99.90
2022-08-17T22:54:18.869Z,99.90
2022-08-17T22:57:11.281Z,99.90
2022-08-17T22:59:49.346Z,99.90
2022-08-17T23:02:25.506Z,99.90
2022-08-17T23:04:59.032Z,99.90
2022-08-17T23:07:27.002Z,99.90
2022-08-17T23:09:55.284Z,99.90
2022-08-17T23:12:27.235Z,99.90
2022-08-17T23:15:01.477Z,99.90
2022-08-17T23:17:36.937Z,99.90
2022-08-17T23:20:08.167Z,99.90
2022-08-17T23:22:37.097Z,99.90
2022-08-17T23:25:05.903Z,99.90
2022-08-17T23:27:33.936Z,99.90
2022-08-17T23:30:01.881Z,99.90
2022-08-17T23:32:31.477Z,99.90
2022-08-17T23:34:59.455Z,99.90
2022-08-17T23:37:28.342Z,99.90
2022-08-17T23:39:56.317Z,99.90
2022-08-17T23:42:24.408Z,99.90
2022-08-17T23:44:52.367Z,99.90
2022-08-17T23:47:21.253Z,99.90
2022-08-17T23:49:50.491Z,99.90
2022-08-17T23:52:23.107Z,99.90
2022-08-17T23:54:51.064Z,99.90
2022-08-17T23:57:20.783Z,99.90
